createdAt,value
2018-07-16T00:00:12.039Z,16.90
2018-07-16T00:05:02.968Z,16.90
2018-07-16T00:09:53.855Z,16.80
2018-07-16T00:14:44.799Z,16.80
2018-07-16T00:19:35.665Z,16.70
2018-07-16T00:24:27.299Z,16.60
2018-07-16T00:29:18.926Z,16.60
2018-07-16T00:34:10.550Z,16.60
2018-07-16T00:39:01.531Z,16.50
2018-07-16T00:43:52.425Z,16.50
2018-07-16T00:48:43.317Z,16.50
2018-07-16T00:53:35.015Z,16.40
2018-07-16T00:58:25.933Z,16.30
2018-07-16T01:03:16.794Z,16.30
2018-07-16T01:08:08.486Z,16.20
2018-07-16T01:12:59.368Z,16.20
2018-07-16T01:17:50.314Z,16.20
2018-07-16T01:22:41.203Z,16.10
2018-07-16T01:27:32.092Z,16.10
2018-07-16T01:32:22.975Z,16.00
2018-07-16T01:37:13.859Z,15.90
2018-07-16T01:42:04.802Z,15.90
2018-07-16T01:46:55.705Z,15.90
2018-07-16T01:51:46.580Z,15.80
2018-07-16T01:56:37.459Z,15.70
2018-07-16T02:01:28.371Z,15.70
2018-07-16T02:06:19.253Z,15.60
2018-07-16T02:11:10.890Z,15.50
2018-07-16T02:16:02.528Z,15.50
2018-07-16T02:20:53.434Z,15.40
2018-07-16T02:25:45.144Z,15.40
2018-07-16T02:30:36.033Z,15.30
2018-07-16T02:35:26.932Z,15.30
2018-07-16T02:40:17.835Z,15.30
2018-07-16T02:45:09.463Z,15.10
2018-07-16T02:50:01.083Z,15.10
2018-07-16T02:54:52.745Z,15.00
2018-07-16T02:59:43.656Z,15.00
2018-07-16T03:04:35.337Z,14.90
2018-07-16T03:09:26.263Z,14.90
2018-07-16T03:14:17.897Z,14.80
2018-07-16T03:19:08.792Z,14.80
2018-07-16T03:23:59.753Z,14.80
2018-07-16T03:28:50.652Z,14.80
2018-07-16T03:33:41.572Z,14.70
2018-07-16T03:38:32.475Z,14.70
2018-07-16T03:43:23.373Z,14.60
2018-07-16T03:48:14.262Z,14.60
2018-07-16T03:53:05.886Z,14.60
2018-07-16T03:57:56.771Z,14.50
2018-07-16T04:02:47.698Z,14.50
2018-07-16T04:07:38.596Z,14.50
2018-07-16T04:12:29.490Z,14.50
2018-07-16T04:17:21.132Z,14.50
2018-07-16T04:22:12.023Z,14.50
2018-07-16T04:27:03.023Z,14.50
2018-07-16T04:31:53.931Z,14.50
2018-07-16T04:36:44.895Z,14.50
2018-07-16T04:41:36.536Z,14.60
2018-07-16T04:46:28.259Z,14.60
2018-07-16T04:51:19.895Z,14.70
2018-07-16T04:56:11.586Z,14.70
2018-07-16T05:01:03.168Z,14.80
2018-07-16T05:05:54.847Z,14.90
2018-07-16T05:10:45.776Z,14.90
2018-07-16T05:15:36.681Z,15.00
2018-07-16T05:20:27.615Z,15.10
2018-07-16T05:25:18.500Z,15.20
2018-07-16T05:30:09.417Z,15.30
2018-07-16T05:35:01.105Z,15.50
2018-07-16T05:39:52.157Z,15.50
2018-07-16T05:44:43.805Z,15.70
2018-07-16T05:49:34.698Z,15.70
2018-07-16T05:54:26.357Z,16.00
2018-07-16T05:59:17.978Z,16.20
2018-07-16T06:04:09.615Z,16.30
2018-07-16T06:09:01.311Z,16.50
2018-07-16T06:13:52.199Z,16.50
2018-07-16T06:18:43.150Z,16.60
2018-07-16T06:23:34.791Z,16.90
2018-07-16T06:28:25.699Z,16.80
2018-07-16T06:33:17.368Z,17.20
2018-07-16T06:38:08.257Z,17.10
2018-07-16T06:42:59.888Z,17.40
2018-07-16T06:47:50.806Z,17.40
2018-07-16T06:52:41.715Z,17.60
2018-07-16T06:57:32.615Z,17.70
2018-07-16T07:02:23.536Z,17.90
2018-07-16T07:07:15.188Z,18.20
2018-07-16T07:12:06.072Z,18.20
2018-07-16T07:16:56.950Z,18.40
2018-07-16T07:21:47.844Z,18.50
2018-07-16T07:26:38.739Z,18.70
2018-07-16T07:31:29.658Z,18.90
2018-07-16T07:36:20.544Z,19.20
2018-07-16T07:41:12.170Z,19.60
2018-07-16T07:46:03.643Z,19.60
2018-07-16T07:50:54.539Z,19.80
2018-07-16T07:55:46.310Z,20.30
2018-07-16T08:00:37.105Z,20.20
2018-07-16T08:05:28.003Z,20.50
2018-07-16T08:10:19.634Z,20.90
2018-07-16T08:15:11.271Z,21.00
2018-07-16T08:20:02.899Z,21.20
2018-07-16T08:24:54.535Z,21.30
2018-07-16T08:29:46.171Z,21.50
2018-07-16T08:34:37.799Z,21.60
2018-07-16T08:39:28.718Z,21.60
2018-07-16T08:44:19.613Z,21.70
2018-07-16T08:49:10.573Z,21.80
2018-07-16T08:54:02.261Z,22.00
2018-07-16T08:58:53.286Z,22.00
2018-07-16T09:03:44.204Z,22.10
2018-07-16T09:08:35.110Z,22.20
2018-07-16T09:13:26.076Z,22.30
2018-07-16T09:18:16.902Z,22.30
2018-07-16T09:23:08.522Z,22.50
2018-07-16T09:27:59.411Z,22.40
2018-07-16T09:32:50.360Z,22.50
2018-07-16T09:37:41.204Z,22.60
2018-07-16T09:42:32.864Z,22.80
2018-07-16T09:47:23.775Z,22.80
2018-07-16T09:52:14.711Z,22.80
2018-07-16T09:57:05.591Z,22.90
2018-07-16T10:01:57.228Z,23.10
2018-07-16T10:06:48.847Z,23.20
2018-07-16T10:11:40.493Z,23.20
2018-07-16T10:16:32.114Z,23.30
2018-07-16T10:21:23.036Z,23.30
2018-07-16T10:26:14.732Z,23.40
2018-07-16T10:31:05.629Z,23.40
2018-07-16T10:35:56.514Z,23.60
2018-07-16T10:40:48.153Z,23.70
2018-07-16T10:45:39.766Z,23.80
2018-07-16T10:50:30.652Z,23.80
2018-07-16T10:55:21.668Z,23.90
2018-07-16T11:00:12.483Z,24.10
2018-07-16T11:05:03.402Z,24.20
2018-07-16T11:09:54.279Z,24.40
2018-07-16T11:14:45.963Z,24.90
2018-07-16T11:19:36.872Z,24.90
2018-07-16T11:24:27.835Z,25.10
2018-07-16T11:29:19.522Z,25.70
2018-07-16T11:34:10.443Z,25.60
2018-07-16T11:39:01.378Z,26.00
2018-07-16T11:43:52.267Z,26.30
2018-07-16T11:48:43.158Z,26.60
2018-07-16T11:53:34.842Z,27.20
2018-07-16T11:58:25.718Z,27.20
2018-07-16T12:03:17.396Z,28.00
2018-07-16T12:08:08.290Z,28.00
2018-07-16T12:12:59.175Z,28.40
2018-07-16T12:17:50.072Z,28.80
2018-07-16T12:22:40.972Z,29.10
2018-07-16T12:27:31.850Z,29.30
2018-07-16T12:32:23.524Z,29.80
2018-07-16T12:37:14.443Z,29.80
2018-07-16T12:42:05.348Z,30.10
2018-07-16T12:46:56.291Z,30.50
2018-07-16T12:51:47.181Z,30.90
2018-07-16T12:56:38.193Z,31.10
2018-07-16T13:01:29.075Z,31.40
2018-07-16T13:06:20.061Z,31.70
2018-07-16T13:11:10.983Z,32.00
2018-07-16T13:16:01.983Z,32.30
2018-07-16T13:20:52.799Z,32.50
2018-07-16T13:25:43.751Z,32.60
2018-07-16T13:30:34.655Z,32.50
2018-07-16T13:35:25.552Z,32.50
2018-07-16T13:40:16.499Z,32.40
2018-07-16T13:45:07.420Z,32.30
2018-07-16T13:49:58.328Z,32.30
2018-07-16T13:54:49.274Z,32.10
2018-07-16T13:59:40.968Z,31.90
2018-07-16T14:04:31.900Z,31.90
2018-07-16T14:09:22.840Z,31.90
2018-07-16T14:14:13.766Z,31.90
2018-07-16T14:19:04.796Z,32.00
2018-07-16T14:23:56.488Z,32.30
2018-07-16T14:28:47.411Z,32.30
2018-07-16T14:33:38.354Z,32.50
2018-07-16T14:38:29.244Z,32.70
2018-07-16T14:43:20.179Z,33.00
2018-07-16T14:48:11.115Z,33.00
2018-07-16T14:53:02.106Z,32.90
2018-07-16T14:57:53.007Z,32.70
2018-07-16T15:02:43.939Z,32.70
2018-07-16T15:07:34.822Z,32.70
2018-07-16T15:12:25.706Z,32.70
2018-07-16T15:17:16.604Z,32.60
2018-07-16T15:22:07.511Z,32.40
2018-07-16T15:26:58.435Z,32.20
2018-07-16T15:31:49.327Z,32.10
2018-07-16T15:36:40.207Z,32.10
2018-07-16T15:41:31.188Z,32.00
2018-07-16T15:46:21.990Z,32.00
2018-07-16T15:51:12.871Z,31.90
2018-07-16T15:56:04.487Z,31.70
2018-07-16T16:00:55.374Z,31.70
2018-07-16T16:05:46.264Z,31.60
2018-07-16T16:10:37.206Z,31.40
2018-07-16T16:15:28.086Z,31.30
2018-07-16T16:20:19.748Z,30.90
2018-07-16T16:25:10.635Z,30.90
2018-07-16T16:30:02.251Z,30.60
2018-07-16T16:34:53.120Z,30.50
2018-07-16T16:39:44.002Z,30.40
2018-07-16T16:44:35.624Z,30.10
2018-07-16T16:49:26.523Z,30.10
2018-07-16T16:54:17.399Z,29.90
2018-07-16T16:59:08.287Z,29.80
2018-07-16T17:03:59.910Z,29.50
2018-07-16T17:08:53.814Z,29.40
2018-07-16T17:13:45.516Z,29.10
2018-07-16T17:18:36.422Z,29.00
2018-07-16T17:23:29.127Z,28.90
2018-07-16T17:28:20.051Z,28.70
2018-07-16T17:33:11.753Z,28.40
2018-07-16T17:38:02.631Z,28.40
2018-07-16T17:42:53.554Z,28.30
2018-07-16T17:47:44.493Z,28.10
2018-07-16T17:52:35.411Z,28.00
2018-07-16T17:57:26.305Z,27.80
2018-07-16T18:02:17.406Z,27.70
2018-07-16T18:07:09.125Z,27.40
2018-07-16T18:12:00.835Z,27.30
2018-07-16T18:16:51.765Z,27.30
2018-07-16T18:21:42.659Z,27.20
2018-07-16T18:26:33.551Z,27.00
2018-07-16T18:31:24.510Z,26.90
2018-07-16T18:36:15.411Z,26.80
2018-07-16T18:41:06.299Z,26.60
2018-07-16T18:45:57.255Z,26.50
2018-07-16T18:50:48.146Z,26.30
2018-07-16T18:55:39.115Z,26.10
2018-07-16T19:00:29.997Z,26.00
2018-07-16T19:05:20.931Z,25.80
2018-07-16T19:10:11.925Z,25.70
2018-07-16T19:15:03.368Z,25.50
2018-07-16T19:19:54.234Z,25.40
2018-07-16T19:24:45.203Z,25.20
2018-07-16T19:29:36.094Z,25.00
2018-07-16T19:34:27.039Z,24.80
2018-07-16T19:39:18.085Z,24.60
2018-07-16T19:44:08.856Z,24.50
2018-07-16T19:48:59.795Z,24.30
2018-07-16T19:53:50.718Z,24.10
2018-07-16T19:58:42.649Z,24.00
2018-07-16T20:03:33.560Z,23.80
2018-07-16T20:08:25.684Z,23.60
2018-07-16T20:13:16.526Z,23.50
2018-07-16T20:18:07.414Z,23.30
2018-07-16T20:22:58.327Z,23.20
2018-07-16T20:27:49.974Z,23.00
2018-07-16T20:32:41.664Z,22.90
2018-07-16T20:37:32.568Z,22.90
2018-07-16T20:42:23.470Z,22.80
2018-07-16T20:47:15.495Z,22.80
2018-07-16T20:52:07.134Z,22.60
2018-07-16T20:56:59.153Z,22.50
2018-07-16T21:01:50.163Z,22.40
2018-07-16T21:06:41.060Z,22.30
2018-07-16T21:11:31.981Z,22.20
2018-07-16T21:16:23.604Z,22.10
2018-07-16T21:21:14.479Z,22.00
2018-07-16T21:26:06.099Z,21.80
2018-07-16T21:30:57.100Z,21.80
2018-07-16T21:35:47.975Z,21.70
2018-07-16T21:40:39.046Z,21.60
2018-07-16T21:45:30.496Z,21.40
2018-07-16T21:50:22.170Z,21.20
2018-07-16T21:55:13.172Z,21.20
2018-07-16T22:00:04.051Z,21.10
2018-07-16T22:04:55.034Z,21.00
2018-07-16T22:09:45.951Z,20.90
2018-07-16T22:14:36.870Z,20.80
2018-07-16T22:19:27.747Z,20.70
2018-07-16T22:24:19.383Z,20.50
2018-07-16T22:29:11.030Z,20.40
2018-07-16T22:34:02.718Z,20.30
2018-07-16T22:38:54.345Z,20.20
2018-07-16T22:43:45.235Z,20.20
2018-07-16T22:48:36.131Z,20.20
2018-07-16T22:53:27.831Z,19.90
2018-07-16T22:58:18.746Z,19.90
2018-07-16T23:03:09.663Z,19.90
2018-07-16T23:08:00.546Z,19.80
2018-07-16T23:12:51.438Z,19.70
2018-07-16T23:17:43.101Z,19.50
2018-07-16T23:22:34.023Z,19.50
2018-07-16T23:27:24.906Z,19.40
2018-07-16T23:32:16.526Z,19.30
2018-07-16T23:37:07.399Z,19.30
2018-07-16T23:41:58.319Z,19.20
2018-07-16T23:46:49.240Z,19.10
2018-07-16T23:51:40.128Z,19.10
2018-07-16T23:56:31.017Z,19.00
